Vejle, Denmark
Current Conditions -  °F | °C
As of 9:20 AM on Sunday 26 Oct 2014 (Local Time) from EKBI Reporting Station
Broken Clouds Broken Clouds  
Wind Chill: 54°   Ceiling: 5700
Heat Index: 54°   Visibility: 6mi
Dew Point: 52°   Wind: 12mph
Humidity: 94%   Direction: 190°S
Pressure: 30.03"   Gusts: NA
Location:  55.71°N, 9.54°E
Report Text: EKBI 260720Z AUTO 19010KT 9999NDV FEW008/// FEW043/// BKN057/// 12/11 Q1017
Loading
Personal Weather Stations






























Interactive Weather Map
Tropical Storm Tracking
New forecast layout! Learn more

10-Day Weather Forecast

Advertisements
Track Severe Weather on mobile